Time;durP1;ratioP1;P1;durP2;ratioP2;P2;SDS_P1;SDS_P2;PMS_P1;PMS_P2;Temp;Humidity;BMP_temperature;BMP_pressure;BME280_temperature;BME280_humidity;BME280_pressure;Samples;Min_cycle;Max_cycle;Signal;HPM_P1;HPM_P2
2022/10/26 00:01:04;;;;;;;0.10;0.10;;;;;;;16.40;79.96;98922.66;7358436;19;20007;-58
2022/10/26 00:03:29;;;;;;;0.10;0.10;;;;;;;16.38;79.89;98917.53;7357771;19;20489;-58
2022/10/26 00:06:01;;;;;;;0.10;0.10;;;;;;;16.43;79.78;98904.00;7358563;19;20020;-57
2022/10/26 00:08:27;;;;;;;0.10;0.10;;;;;;;16.38;79.95;98906.16;7356300;19;20010;-57
2022/10/26 00:10:56;;;;;;;0.10;0.10;;;;;;;16.43;80.31;98909.28;7359774;19;22203;-58
2022/10/26 00:13:22;;;;;;;0.10;0.10;;;;;;;16.41;80.13;98896.19;7356275;19;20509;-58
2022/10/26 00:15:47;;;;;;;0.10;0.10;;;;;;;16.43;79.93;98888.22;7358905;19;21280;-58
2022/10/26 00:18:13;;;;;;;0.10;0.10;;;;;;;16.43;80.11;98883.78;7357624;19;20019;-57
2022/10/26 00:20:38;;;;;;;0.00;0.00;;;;;;;16.26;80.02;98844.69;7357949;19;20014;-57
2022/10/26 00:23:03;;;;;;;0.10;0.10;;;;;;;16.30;80.28;98852.22;7355869;19;20007;-58
2022/10/26 00:25:29;;;;;;;0.10;0.10;;;;;;;16.46;80.38;98874.78;7358535;19;20011;-58
2022/10/26 00:27:54;;;;;;;0.10;0.10;;;;;;;16.47;79.90;98873.81;7356842;19;20018;-59
2022/10/26 00:30:19;;;;;;;0.10;0.10;;;;;;;16.46;80.05;98858.97;7355658;19;20378;-58
2022/10/26 00:32:45;;;;;;;0.00;0.00;;;;;;;16.45;79.96;98854.66;7358391;19;20735;-58
2022/10/26 00:35:10;;;;;;;0.10;0.10;;;;;;;16.44;79.67;98847.72;7355775;19;20021;-58
2022/10/26 00:37:36;;;;;;;0.10;0.10;;;;;;;16.33;79.15;98825.69;7356987;19;20403;-58
2022/10/26 00:40:01;;;;;;;0.10;0.10;;;;;;;16.43;79.39;98846.88;7355203;19;20011;-58
2022/10/26 00:42:26;;;;;;;0.10;0.10;;;;;;;16.40;79.53;98836.56;7355371;19;20037;-59
2022/10/26 00:45:00;;;;;;;0.10;0.10;;;;;;;16.41;79.38;98851.41;7356495;19;20026;-58
2022/10/26 00:48:01;;;;;;;0.10;0.10;;;;;;;16.36;79.53;98840.38;7356689;19;20014;-58
2022/10/26 00:50:37;;;;;;;0.10;0.10;;;;;;;16.37;79.48;98841.22;7248665;19;2004227;-57
2022/10/26 00:53:05;;;;;;;0.00;0.00;;;;;;;16.35;79.31;98849.25;7356395;19;20419;-58
2022/10/26 00:55:36;;;;;;;;;;;;;;;16.39;78.86;98847.25;7356164;19;20014;-57
2022/10/26 00:58:04;;;;;;;0.00;0.00;;;;;;;16.33;79.05;98830.94;7356281;19;19968;-57
2022/10/26 01:00:30;;;;;;;0.03;0.03;;;;;;;16.34;79.43;98842.31;7355995;19;20010;-57
2022/10/26 01:02:58;;;;;;;0.10;0.10;;;;;;;16.34;79.77;98842.31;7354918;19;20021;-58
2022/10/26 01:05:25;;;;;;;0.10;0.10;;;;;;;16.21;79.54;98821.31;7352099;19;20873;-57
2022/10/26 01:07:52;;;;;;;0.10;0.10;;;;;;;16.32;79.33;98833.69;7353355;19;20035;-59
2022/10/26 01:10:18;;;;;;;0.10;0.10;;;;;;;16.32;79.35;98837.16;7360975;19;20781;-58
2022/10/26 01:12:44;;;;;;;0.00;0.00;;;;;;;16.29;79.68;98832.13;7362304;19;20006;-59
2022/10/26 01:15:10;;;;;;;0.10;0.10;;;;;;;16.33;79.04;98838.84;7364233;19;20682;-58
2022/10/26 01:17:41;;;;;;;0.10;0.10;;;;;;;16.37;79.88;98838.59;7358356;19;20028;-58
2022/10/26 01:20:37;;;;;;;0.10;0.10;;;;;;;16.38;79.72;98848.19;7363754;19;20014;-58
2022/10/26 01:23:11;;;;;;;0.00;0.00;;;;;;;16.39;79.83;98847.25;7261340;19;2004293;-59
2022/10/26 01:26:04;;;;;;;0.00;0.00;;;;;;;16.38;79.47;98838.50;7360691;19;20014;-58
2022/10/26 01:28:45;;;;;;;0.00;0.00;;;;;;;16.39;79.48;98844.59;7258110;19;2004400;-59
2022/10/26 01:31:17;;;;;;;0.00;0.00;;;;;;;16.37;79.43;98841.22;7362569;19;20021;-58
2022/10/26 01:34:21;;;;;;;0.00;0.00;;;;;;;16.38;79.05;98842.94;7363466;19;20037;-59
2022/10/26 01:36:55;;;;;;;0.00;0.00;;;;;;;16.32;79.29;98839.81;7259172;19;2004463;-59
2022/10/26 01:39:33;;;;;;;0.10;0.10;;;;;;;16.28;79.32;98833.09;7364407;19;20010;-58
2022/10/26 01:42:02;;;;;;;0.10;0.10;;;;;;;16.30;79.10;98831.16;7361689;19;20011;-58
2022/10/26 01:44:38;;;;;;;0.00;0.00;;;;;;;16.30;79.60;98830.31;7361761;19;20615;-58
2022/10/26 01:47:05;;;;;;;0.00;0.00;;;;;;;16.22;79.20;98820.41;7364084;19;20766;-59
2022/10/26 01:49:35;;;;;;;0.10;0.10;;;;;;;16.24;79.79;98818.47;7362516;19;20015;-58
2022/10/26 01:52:01;;;;;;;0.00;0.00;;;;;;;16.19;79.21;98817.16;7361011;19;20058;-57
2022/10/26 01:54:28;;;;;;;0.10;0.10;;;;;;;16.17;79.27;98819.91;7361153;19;20074;-58
2022/10/26 01:57:00;;;;;;;0.10;0.10;;;;;;;16.18;78.53;98812.84;7358251;19;20006;-58
2022/10/26 01:59:53;;;;;;;0.00;0.00;;;;;;;16.14;78.51;98808.75;7354374;19;20094;-58
2022/10/26 02:02:41;;;;;;;0.10;0.10;;;;;;;16.08;78.07;98805.63;7261505;19;2004332;-58
2022/10/26 02:05:28;;;;;;;0.00;0.00;;;;;;;16.03;78.63;98802.50;7363011;19;20029;-58
2022/10/26 02:07:53;;;;;;;0.00;0.00;;;;;;;15.96;78.12;98800.44;7361057;19;20026;-57
2022/10/26 02:10:28;;;;;;;0.00;0.00;;;;;;;15.92;78.37;98809.53;7362471;19;20019;-58
2022/10/26 02:13:03;;;;;;;0.05;0.05;;;;;;;15.82;78.17;98799.69;7361937;19;20055;-58
2022/10/26 02:16:04;;;;;;;0.00;0.00;;;;;;;15.86;78.23;98783.66;7360961;19;20087;-58
2022/10/26 02:18:37;;;;;;;0.10;0.10;;;;;;;15.80;78.29;98796.31;7256481;19;2004115;-58
2022/10/26 02:21:08;;;;;;;0.00;0.00;;;;;;;15.78;78.02;98789.50;7357571;19;20470;-58
2022/10/26 02:23:37;;;;;;;0.00;0.00;;;;;;;15.75;78.02;98798.44;7359468;19;20014;-59
2022/10/26 02:26:07;;;;;;;0.00;0.00;;;;;;;15.72;78.48;98769.75;7360097;19;20049;-59
2022/10/26 02:28:36;;;;;;;0.10;0.10;;;;;;;15.72;78.29;98782.06;7360457;19;20040;-58
2022/10/26 02:31:04;;;;;;;0.00;0.00;;;;;;;15.65;78.62;98784.31;7359459;19;20942;-57
2022/10/26 02:33:36;;;;;;;0.03;0.03;;;;;;;15.71;78.24;98797.03;7360093;19;20029;-59
2022/10/26 02:36:05;;;;;;;0.03;0.03;;;;;;;15.70;78.66;98805.84;7363042;19;20015;-59
2022/10/26 02:38:33;;;;;;;0.00;0.00;;;;;;;15.67;78.74;98790.31;7355832;19;20018;-58
2022/10/26 02:41:00;;;;;;;0.05;0.05;;;;;;;15.66;78.53;98788.63;7362710;19;20064;-59
2022/10/26 02:43:27;;;;;;;;;;;;;;;15.68;77.91;98791.97;7359156;19;20015;-59
2022/10/26 02:46:09;;;;;;;0.00;0.00;;;;;;;15.66;77.94;98791.25;7362321;19;19984;-59
2022/10/26 02:48:35;;;;;;;0.00;0.00;;;;;;;15.60;78.54;98783.75;7357290;19;20014;-59
2022/10/26 02:51:42;;;;;;;0.00;0.00;;;;;;;15.60;78.54;98794.28;7361982;19;20013;-59
2022/10/26 02:54:21;;;;;;;0.10;0.10;;;;;;;15.60;78.35;98799.56;7253810;19;2004551;-59
2022/10/26 02:57:01;;;;;;;0.00;0.00;;;;;;;15.58;78.85;98798.84;7355570;19;20010;-59
2022/10/26 02:59:31;;;;;;;0.10;0.10;;;;;;;15.56;78.72;98793.69;7359773;19;20015;-59
2022/10/26 03:01:57;;;;;;;0.10;0.10;;;;;;;15.53;79.22;98793.06;7359051;19;20829;-59
2022/10/26 03:04:33;;;;;;;0.00;0.00;;;;;;;15.58;79.10;98806.72;7353491;19;20124;-59
2022/10/26 03:06:59;;;;;;;0.00;0.00;;;;;;;15.54;79.15;98806.09;7359685;19;20033;-59
2022/10/26 03:09:25;;;;;;;0.03;0.03;;;;;;;15.56;79.22;98805.97;7359785;19;21584;-59
2022/10/26 03:11:51;;;;;;;0.08;0.08;;;;;;;15.54;79.28;98797.38;7360892;19;20007;-58
2022/10/26 03:14:16;;;;;;;0.08;0.08;;;;;;;15.52;79.08;98775.63;7363341;19;22057;-58
2022/10/26 03:16:41;;;;;;;0.00;0.00;;;;;;;15.46;79.25;98761.13;7359517;19;20684;-59
2022/10/26 03:19:07;;;;;;;0.00;0.00;;;;;;;15.48;79.61;98779.44;7358074;19;20011;-58
2022/10/26 03:21:32;;;;;;;0.10;0.10;;;;;;;15.47;79.32;98793.53;7356830;19;20470;-59
2022/10/26 03:23:58;;;;;;;0.00;0.00;;;;;;;15.45;79.09;98775.22;7360899;19;20011;-58
2022/10/26 03:26:23;;;;;;;0.00;0.00;;;;;;;15.43;79.77;98760.50;7360945;19;20086;-59
2022/10/26 03:28:49;;;;;;;0.08;0.08;;;;;;;15.42;80.08;98764.09;7362643;19;20014;-58
2022/10/26 03:31:14;;;;;;;0.10;0.10;;;;;;;15.41;79.89;98751.88;7360994;19;20011;-57
2022/10/26 03:33:39;;;;;;;0.10;0.10;;;;;;;15.41;80.01;98752.75;7360375;19;20014;-58
2022/10/26 03:36:05;;;;;;;0.00;0.00;;;;;;;15.39;79.96;98743.28;7362387;19;20024;-58
2022/10/26 03:38:31;;;;;;;0.00;0.00;;;;;;;15.40;80.25;98723.91;7357853;19;20090;-58
2022/10/26 03:40:56;;;;;;;0.00;0.00;;;;;;;15.41;80.00;98691.38;7361118;19;20478;-58
2022/10/26 03:43:21;;;;;;;0.00;0.00;;;;;;;15.27;79.82;98677.47;7358699;19;20013;-58
2022/10/26 03:45:47;;;;;;;0.10;0.10;;;;;;;15.41;79.74;98683.50;7361079;19;20010;-58
2022/10/26 03:48:13;;;;;;;0.00;0.00;;;;;;;15.42;79.50;98691.28;7360878;19;20086;-58
2022/10/26 03:50:38;;;;;;;0.00;0.00;;;;;;;15.42;79.85;98696.53;7360287;19;20011;-58
2022/10/26 03:53:04;;;;;;;0.00;0.00;;;;;;;15.43;79.46;98705.28;7361627;19;20094;-58
2022/10/26 03:55:30;;;;;;;0.10;0.10;;;;;;;15.40;79.88;98719.47;7360632;19;20775;-58
2022/10/26 03:57:55;;;;;;;0.00;0.00;;;;;;;15.39;79.67;98738.00;7362271;19;20006;-58
2022/10/26 04:00:21;;;;;;;0.10;0.10;;;;;;;15.42;79.68;98732.53;7361317;19;20018;-57
2022/10/26 04:02:53;;;;;;;0.00;0.00;;;;;;;15.44;79.62;98735.88;7360236;19;20010;-58
2022/10/26 04:05:19;;;;;;;0.00;0.00;;;;;;;15.42;79.82;98729.91;7361301;19;20136;-58
2022/10/26 04:07:51;;;;;;;0.00;0.00;;;;;;;15.45;79.89;98734.91;7363273;19;20081;-58
2022/10/26 04:10:16;;;;;;;0.00;0.00;;;;;;;15.40;80.07;98739.69;7358869;19;20018;-58
2022/10/26 04:12:42;;;;;;;0.10;0.10;;;;;;;15.40;79.95;98748.41;7362646;19;22612;-56
2022/10/26 04:15:07;;;;;;;0.00;0.00;;;;;;;15.39;80.07;98753.78;7359106;19;20091;-58
2022/10/26 04:17:33;;;;;;;0.00;0.00;;;;;;;15.39;80.14;98757.25;7363315;19;20010;-58
2022/10/26 04:19:58;;;;;;;0.10;0.10;;;;;;;15.36;80.26;98744.34;7358481;19;20021;-58
2022/10/26 04:22:24;;;;;;;0.10;0.10;;;;;;;15.35;80.30;98721.59;7361970;19;20010;-58
2022/10/26 04:24:49;;;;;;;0.10;0.10;;;;;;;15.35;79.90;98718.13;7360024;19;20006;-58
2022/10/26 04:27:15;;;;;;;0.08;0.08;;;;;;;15.35;80.11;98720.78;7358742;19;20021;-55
2022/10/26 04:29:40;;;;;;;0.00;0.00;;;;;;;15.34;79.93;98717.31;7362527;19;20011;-58
2022/10/26 04:32:06;;;;;;;0.00;0.00;;;;;;;15.24;79.66;98704.00;7360042;19;20014;-60
2022/10/26 04:34:32;;;;;;;0.10;0.10;;;;;;;15.32;79.84;98628.03;7360377;19;20021;-60
2022/10/26 04:36:57;;;;;;;0.00;0.00;;;;;;;15.24;79.38;98614.59;7360298;19;20007;-59
2022/10/26 04:39:23;;;;;;;0.00;0.00;;;;;;;15.23;79.24;98615.56;7359134;19;20002;-59
2022/10/26 04:41:48;;;;;;;0.00;0.00;;;;;;;15.16;79.68;98640.63;7358378;19;20039;-58
2022/10/26 04:44:13;;;;;;;0.10;0.10;;;;;;;15.17;79.63;98665.13;7359605;19;20007;-56
2022/10/26 04:46:39;;;;;;;0.05;0.05;;;;;;;15.13;79.35;98667.16;7365752;19;20010;-59
2022/10/26 04:49:04;;;;;;;0.00;0.00;;;;;;;14.71;78.96;98601.03;7367590;19;20038;-58
2022/10/26 04:51:30;;;;;;;0.00;0.00;;;;;;;15.03;79.39;98663.50;7367833;19;20051;-58
2022/10/26 04:53:57;;;;;;;0.00;0.00;;;;;;;15.01;79.15;98675.94;7364207;19;20022;-58
2022/10/26 04:56:22;;;;;;;0.10;0.10;;;;;;;14.95;79.57;98679.00;7365664;19;20041;-58
2022/10/26 04:58:48;;;;;;;0.10;0.10;;;;;;;14.94;79.50;98685.22;7362555;19;20058;-58
2022/10/26 05:01:13;;;;;;;0.10;0.10;;;;;;;14.92;79.11;98681.88;7366040;19;20623;-58
2022/10/26 05:03:39;;;;;;;0.00;0.00;;;;;;;14.88;78.79;98677.78;7362109;19;20010;-58
2022/10/26 05:06:04;;;;;;;0.10;0.10;;;;;;;14.85;79.16;98691.13;7356161;19;20626;-57
2022/10/26 05:08:29;;;;;;;0.00;0.00;;;;;;;14.81;79.57;98690.53;7365447;19;20038;-58
2022/10/26 05:10:55;;;;;;;0.08;0.08;;;;;;;14.66;79.03;98700.34;7363979;19;20342;-59
2022/10/26 05:13:20;;;;;;;0.10;0.10;;;;;;;14.75;78.89;98725.97;7363379;19;20010;-58
2022/10/26 05:15:46;;;;;;;0.00;0.00;;;;;;;14.73;78.88;98730.47;7364385;19;20010;-58
2022/10/26 05:18:11;;;;;;;0.00;0.00;;;;;;;14.51;79.18;98699.66;7364162;19;20018;-58
2022/10/26 05:20:37;;;;;;;0.00;0.00;;;;;;;14.65;79.15;98738.09;7364646;19;20464;-58
2022/10/26 05:23:05;;;;;;;0.10;0.10;;;;;;;14.63;78.78;98750.47;7362995;19;22548;-58
2022/10/26 05:25:32;;;;;;;0.00;0.00;;;;;;;14.59;79.72;98759.50;7365242;19;20006;-58
2022/10/26 05:27:58;;;;;;;;;;;;;;;14.60;78.91;98771.72;7364600;19;20494;-58
2022/10/26 05:30:24;;;;;;;0.03;0.03;;;;;;;14.53;79.43;98760.78;7362011;19;19931;-58
2022/10/26 05:32:56;;;;;;;0.10;0.10;;;;;;;14.51;79.05;98762.69;7361380;19;20026;-58
2022/10/26 05:35:22;;;;;;;0.10;0.10;;;;;;;14.48;79.34;98773.38;7363776;19;20003;-59
2022/10/26 05:37:47;;;;;;;0.00;0.00;;;;;;;14.46;79.31;98779.69;7362090;19;20017;-58
2022/10/26 05:40:14;;;;;;;0.10;0.10;;;;;;;14.43;79.51;98779.88;7364762;19;20006;-58
2022/10/26 05:42:39;;;;;;;0.00;0.00;;;;;;;14.42;79.27;98788.72;7361327;19;20640;-58
2022/10/26 05:45:05;;;;;;;0.00;0.00;;;;;;;14.38;79.90;98787.22;7363967;19;20006;-58
2022/10/26 05:47:30;;;;;;;0.00;0.00;;;;;;;14.30;79.85;98771.19;7357675;19;20006;-59
2022/10/26 05:49:56;;;;;;;0.00;0.00;;;;;;;14.37;79.30;98785.56;7363588;19;20105;-59
2022/10/26 05:52:21;;;;;;;0.10;0.10;;;;;;;14.38;79.48;98792.50;7361861;19;20014;-58
2022/10/26 05:54:47;;;;;;;0.00;0.00;;;;;;;14.36;79.84;98781.25;7361208;19;20019;-59
2022/10/26 05:57:13;;;;;;;0.10;0.10;;;;;;;14.38;79.70;98781.97;7363893;19;20481;-58
2022/10/26 05:59:38;;;;;;;0.03;0.03;;;;;;;14.38;79.45;98781.97;7352300;19;20010;-59
2022/10/26 06:02:16;;;;;;;0.00;0.00;;;;;;;14.38;79.37;98795.13;7359176;19;20113;-58
2022/10/26 06:04:48;;;;;;;;;;;;;;;14.41;79.54;98794.91;7362717;19;20018;-59
2022/10/26 06:07:21;;;;;;;0.00;0.00;;;;;;;14.39;79.04;98800.25;7361632;19;19927;-59
2022/10/26 06:09:48;;;;;;;0.10;0.10;;;;;;;14.34;79.59;98793.63;7359323;19;20017;-59
2022/10/26 06:12:14;;;;;;;0.00;0.00;;;;;;;14.30;79.50;98794.81;7359752;19;20429;-59
2022/10/26 06:14:40;;;;;;;0.00;0.00;;;;;;;14.32;79.06;98811.28;7361498;19;20013;-59
2022/10/26 06:17:26;;;;;;;0.00;0.00;;;;;;;14.38;79.23;98818.75;7361205;19;20014;-59
2022/10/26 06:20:16;;;;;;;0.00;0.00;;;;;;;14.35;79.18;98813.72;7262965;19;2004566;-59
2022/10/26 06:22:59;;;;;;;0.00;0.00;;;;;;;14.35;79.32;98813.72;7256208;19;2004752;-59
2022/10/26 06:25:48;;;;;;;0.00;0.00;;;;;;;14.34;79.03;98822.53;7357652;19;20015;-59
2022/10/26 06:28:24;;;;;;;0.00;0.00;;;;;;;14.26;79.32;98821.28;7357768;19;20010;-60
2022/10/26 06:30:50;;;;;;;0.00;0.00;;;;;;;14.30;79.20;98832.41;7365324;19;20687;-60
2022/10/26 06:33:16;;;;;;;0.00;0.00;;;;;;;14.14;79.22;98801.09;7364549;19;20023;-58
2022/10/26 06:35:53;;;;;;;0.00;0.00;;;;;;;14.32;78.77;98820.00;7362358;19;20006;-60
2022/10/26 06:38:21;;;;;;;0.00;0.00;;;;;;;14.30;79.09;98828.94;7359382;19;20018;-60
2022/10/26 06:40:50;;;;;;;0.00;0.00;;;;;;;14.28;79.07;98818.53;7365397;19;20113;-60
2022/10/26 06:43:28;;;;;;;0.00;0.00;;;;;;;14.31;78.85;98801.75;7355129;19;26469;-59
2022/10/26 06:46:42;;;;;;;0.00;0.00;;;;;;;14.35;79.19;98805.84;7363711;19;20006;-59
2022/10/26 06:49:35;;;;;;;0.10;0.10;;;;;;;14.35;78.90;98818.97;7262440;19;2004197;-62
2022/10/26 06:52:10;;;;;;;0.00;0.00;;;;;;;14.31;78.75;98812.25;7262768;19;2004326;-60
2022/10/26 06:54:53;;;;;;;0.00;0.00;;;;;;;14.32;78.79;98819.16;7362635;19;20010;-59
2022/10/26 06:57:23;;;;;;;0.00;0.00;;;;;;;14.33;78.67;98826.09;7360645;19;20018;-60
2022/10/26 07:00:01;;;;;;;0.00;0.00;;;;;;;14.36;78.99;98818.03;7361887;19;20046;-60
2022/10/26 07:02:27;;;;;;;0.00;0.00;;;;;;;14.36;78.47;98831.16;7362449;19;20018;-60
2022/10/26 07:04:52;;;;;;;0.00;0.00;;;;;;;14.39;78.21;98844.06;7361078;19;20029;-60
2022/10/26 07:07:20;;;;;;;0.00;0.00;;;;;;;14.39;78.29;98854.56;7362678;19;20029;-60
2022/10/26 07:09:46;;;;;;;0.00;0.00;;;;;;;14.40;78.40;98845.75;7353943;19;20011;-60
2022/10/26 07:12:12;;;;;;;0.00;0.00;;;;;;;14.42;77.94;98857.81;7363587;19;20010;-60
2022/10/26 07:14:37;;;;;;;0.10;0.10;;;;;;;14.37;78.46;98838.06;7364963;19;20090;-60
2022/10/26 07:17:02;;;;;;;0.00;0.00;;;;;;;14.45;78.09;98862.03;7365024;19;20007;-60
2022/10/26 07:19:28;;;;;;;0.00;0.00;;;;;;;14.32;77.93;98841.00;7364285;19;20017;-60
2022/10/26 07:22:00;;;;;;;0.03;0.03;;;;;;;14.45;77.94;98862.03;7362642;19;20010;-60
2022/10/26 07:24:27;;;;;;;0.10;0.10;;;;;;;14.38;77.58;98845.00;7361188;19;20602;-60
2022/10/26 07:26:54;;;;;;;0.00;0.00;;;;;;;14.44;78.06;98876.94;7361148;19;20041;-59
2022/10/26 07:29:20;;;;;;;0.00;0.00;;;;;;;14.41;77.64;98886.81;7362353;19;20758;-60
2022/10/26 07:31:46;;;;;;;0.05;0.05;;;;;;;14.42;77.76;98888.50;7363736;19;20077;-60
2022/10/26 07:34:11;;;;;;;0.00;0.00;;;;;;;14.42;77.96;98899.00;7358768;19;20009;-60
2022/10/26 07:36:36;;;;;;;0.10;0.10;;;;;;;14.40;78.04;98895.66;7357271;19;20027;-59
2022/10/26 07:39:05;;;;;;;0.10;0.10;;;;;;;14.44;77.67;98902.34;7363343;19;20353;-60
2022/10/26 07:41:31;;;;;;;0.10;0.10;;;;;;;14.42;77.41;98902.47;7362379;19;20477;-60
2022/10/26 07:43:57;;;;;;;0.00;0.00;;;;;;;14.40;77.70;98911.41;7362162;19;20026;-59
2022/10/26 07:46:22;;;;;;;0.10;0.10;;;;;;;14.36;77.86;98923.91;7361564;19;20010;-59
2022/10/26 07:48:48;;;;;;;0.10;0.10;;;;;;;14.41;78.01;98939.34;7363222;19;20010;-59
2022/10/26 07:51:13;;;;;;;0.08;0.08;;;;;;;14.38;77.97;98929.03;7362577;19;20006;-60
2022/10/26 07:53:39;;;;;;;0.00;0.00;;;;;;;14.41;78.26;98934.94;7363516;19;20011;-60
2022/10/26 07:56:05;;;;;;;0.10;0.10;;;;;;;14.43;78.22;98932.19;7362429;19;20398;-60
2022/10/26 07:58:30;;;;;;;0.00;0.00;;;;;;;14.44;77.98;98944.38;7362816;19;20585;-60
2022/10/26 08:00:56;;;;;;;0.00;0.00;;;;;;;14.47;78.05;98944.19;7358813;19;20006;-60
2022/10/26 08:03:21;;;;;;;0.00;0.00;;;;;;;14.51;77.88;98945.69;7360120;19;20022;-60
2022/10/26 08:05:50;;;;;;;0.00;0.00;;;;;;;14.56;78.11;98954.13;7353081;19;20015;-59
2022/10/26 08:08:17;;;;;;;0.00;0.00;;;;;;;14.52;78.12;98947.38;7360128;19;20457;-59
2022/10/26 08:10:44;;;;;;;0.00;0.00;;;;;;;14.71;77.96;98968.84;7362209;19;20359;-60
2022/10/26 08:13:10;;;;;;;;;;;;;;;14.87;78.40;98965.19;7360614;19;20544;-59
2022/10/26 08:15:35;;;;;;;0.00;0.00;;;;;;;14.90;77.97;98976.34;7359822;19;20478;-60
2022/10/26 08:18:01;;;;;;;0.00;0.00;;;;;;;14.84;77.38;98968.00;7360574;19;20019;-59
2022/10/26 08:20:26;;;;;;;0.00;0.00;;;;;;;15.01;77.57;98980.84;7363217;19;20006;-59
2022/10/26 08:22:54;;;;;;;0.00;0.00;;;;;;;15.07;77.78;98979.59;7364972;19;20025;-60
2022/10/26 08:25:20;;;;;;;0.00;0.00;;;;;;;15.17;77.56;98993.78;7367593;19;20002;-60
2022/10/26 08:27:45;;;;;;;0.10;0.10;;;;;;;15.27;77.46;98986.94;7365134;19;20017;-60
2022/10/26 08:30:11;;;;;;;0.10;0.10;;;;;;;15.41;76.79;99020.16;7366995;19;20750;-59
2022/10/26 08:32:36;;;;;;;0.00;0.00;;;;;;;15.51;76.38;98994.91;7364132;19;20002;-60
2022/10/26 08:35:02;;;;;;;0.10;0.10;;;;;;;15.57;76.38;98995.31;7370029;19;20014;-59
2022/10/26 08:37:27;;;;;;;0.00;0.00;;;;;;;15.72;76.90;99014.50;7365395;19;20025;-59
2022/10/26 08:39:52;;;;;;;0.10;0.10;;;;;;;15.83;76.15;99013.72;7366462;19;20014;-59
2022/10/26 08:42:24;;;;;;;0.10;0.10;;;;;;;15.85;76.20;98995.19;7367161;19;20011;-59
2022/10/26 08:45:00;;;;;;;0.00;0.00;;;;;;;16.01;76.14;99022.06;7367477;19;20022;-59
2022/10/26 08:47:48;;;;;;;0.08;0.08;;;;;;;16.25;76.01;99046.66;7367811;19;20182;-59
2022/10/26 08:50:25;;;;;;;0.00;0.00;;;;;;;16.37;75.16;99054.59;7366614;19;20106;-58
2022/10/26 08:53:16;;;;;;;0.00;0.00;;;;;;;16.50;75.18;99063.31;7367203;19;20014;-59
2022/10/26 08:56:20;;;;;;;0.00;0.00;;;;;;;16.73;74.96;99080.94;7263431;19;2004240;-59
2022/10/26 08:58:54;;;;;;;0.10;0.10;;;;;;;16.82;74.34;99082.88;7259301;19;2004323;-59
2022/10/26 09:01:19;;;;;;;0.10;0.10;;;;;;;16.82;73.34;99085.53;7364094;19;20097;-59
2022/10/26 09:03:45;;;;;;;0.10;0.10;;;;;;;16.86;72.72;99075.59;7366651;19;20090;-59
2022/10/26 09:06:32;;;;;;;0.10;0.10;;;;;;;17.12;73.27;99102.66;7364534;19;20037;-58
2022/10/26 09:09:11;;;;;;;;;;;;;;;17.27;72.94;99104.13;7365337;19;20018;-59
2022/10/26 09:11:39;;;;;;;0.10;0.10;;;;;;;17.25;71.04;99092.88;7363438;19;20484;-59
2022/10/26 09:14:19;;;;;;;0.10;0.10;;;;;;;17.31;71.20;99102.94;7364226;19;20018;-58
2022/10/26 09:17:04;;;;;;;0.10;0.10;;;;;;;17.45;71.23;99116.91;7360605;19;20018;-59
2022/10/26 09:19:57;;;;;;;0.00;0.00;;;;;;;17.60;72.73;99108.63;7355426;19;20031;-59
2022/10/26 09:22:36;;;;;;;0.10;0.10;;;;;;;17.73;71.80;99119.09;7262280;19;2004539;-59
2022/10/26 09:25:37;;;;;;;0.00;0.00;;;;;;;17.93;72.86;99127.28;7360633;19;20022;-59
2022/10/26 09:28:03;;;;;;;0.00;0.00;;;;;;;18.00;69.49;99120.59;7256839;19;2004449;-59
2022/10/26 09:30:29;;;;;;;0.08;0.08;;;;;;;18.07;69.51;99127.06;7364229;19;20015;-59
2022/10/26 09:33:01;;;;;;;0.10;0.10;;;;;;;18.21;70.06;99133.91;7358708;19;20021;-58
2022/10/26 09:35:48;;;;;;;0.10;0.10;;;;;;;18.34;70.44;99132.78;7364145;19;20007;-58
2022/10/26 09:38:23;;;;;;;0.05;0.05;;;;;;;18.41;69.26;99136.63;7362881;19;20014;-58
2022/10/26 09:41:07;;;;;;;0.08;0.08;;;;;;;18.53;69.08;99149.81;7357497;19;20720;-59
2022/10/26 09:43:56;;;;;;;0.00;0.00;;;;;;;18.62;69.11;99151.72;7362291;19;20006;-58
2022/10/26 09:46:28;;;;;;;0.00;0.00;;;;;;;18.72;67.21;99144.75;7363217;19;20014;-57
2022/10/26 09:48:58;;;;;;;0.10;0.10;;;;;;;18.79;66.15;99176.84;7360992;19;20022;-59
2022/10/26 09:51:26;;;;;;;0.05;0.05;;;;;;;18.76;67.27;99170.00;7353981;19;20016;-58
2022/10/26 09:53:54;;;;;;;0.00;0.00;;;;;;;18.85;66.45;99171.03;7338553;19;20018;-58
2022/10/26 09:56:21;;;;;;;0.10;0.10;;;;;;;18.99;65.26;99183.16;7351975;19;20090;-58
2022/10/26 09:59:03;;;;;;;0.10;0.10;;;;;;;19.19;67.02;99187.66;7356461;19;20045;-59
2022/10/26 10:01:35;;;;;;;0.10;0.10;;;;;;;19.26;65.00;99217.94;7355986;19;21396;-58
2022/10/26 10:04:15;;;;;;;0.10;0.10;;;;;;;19.41;66.80;99211.38;7355619;19;20019;-59
2022/10/26 10:06:44;;;;;;;0.10;0.10;;;;;;;19.44;64.18;99195.22;7314184;19;2830261;-59
2022/10/26 10:09:18;;;;;;;0.10;0.10;;;;;;;19.64;64.16;99216.59;7361684;19;20429;-58
2022/10/26 10:11:43;;;;;;;0.10;0.10;;;;;;;19.73;64.86;99231.72;7363430;19;20006;-59
2022/10/26 10:14:14;;;;;;;0.10;0.10;;;;;;;19.89;64.58;99236.56;7365569;19;21479;-58
2022/10/26 10:16:48;;;;;;;0.10;0.10;;;;;;;19.90;64.24;99232.94;7363838;19;20047;-58
2022/10/26 10:19:25;;;;;;;0.10;0.10;;;;;;;20.15;64.85;99250.22;7364909;19;20017;-58
2022/10/26 10:21:54;;;;;;;0.10;0.10;;;;;;;20.17;64.29;99251.78;7366778;19;20033;-58
2022/10/26 10:24:30;;;;;;;0.10;0.10;;;;;;;20.30;65.80;99262.16;7364906;19;20026;-58
2022/10/26 10:27:05;;;;;;;0.00;0.00;;;;;;;20.35;65.77;99286.47;7365931;19;20102;-59
2022/10/26 10:29:31;;;;;;;0.10;0.10;;;;;;;20.40;61.03;99273.66;7365364;19;20010;-58
2022/10/26 10:32:01;;;;;;;0.10;0.10;;;;;;;20.46;63.55;99281.13;7365484;19;20030;-59
2022/10/26 10:34:30;;;;;;;0.00;0.00;;;;;;;20.37;62.25;99273.91;7366375;19;20007;-58
2022/10/26 10:36:56;;;;;;;0.10;0.10;;;;;;;20.51;61.99;99301.09;7365244;19;20755;-58
2022/10/26 10:39:33;;;;;;;0.10;0.10;;;;;;;20.65;61.52;99300.75;7365172;19;21024;-58
2022/10/26 10:41:59;;;;;;;;;;;;;;;20.80;64.72;99307.38;7363107;19;20014;-58
2022/10/26 10:44:28;;;;;;;0.10;0.10;;;;;;;20.80;60.23;99307.38;7365283;19;19935;-58
2022/10/26 10:47:05;;;;;;;0.10;0.10;;;;;;;20.90;61.69;99302.09;7364874;19;20010;-58
2022/10/26 10:49:32;;;;;;;0.10;0.10;;;;;;;20.95;58.62;99321.94;7364280;19;20014;-59
2022/10/26 10:51:57;;;;;;;0.10;0.10;;;;;;;21.03;58.90;99318.59;7362687;19;20045;-57
2022/10/26 10:54:31;;;;;;;0.10;0.10;;;;;;;21.10;59.96;99324.25;7364304;19;20480;-58
2022/10/26 10:57:22;;;;;;;0.10;0.10;;;;;;;21.28;58.10;99309.31;7362176;19;20538;-58
2022/10/26 10:59:56;;;;;;;0.10;0.10;;;;;;;21.43;56.04;99323.91;7260730;19;2004990;-58
2022/10/26 11:02:33;;;;;;;0.10;0.10;;;;;;;21.61;57.41;99341.84;7364391;19;20516;-58
2022/10/26 11:05:29;;;;;;;0.10;0.10;;;;;;;21.70;56.94;99338.34;7363054;19;20015;-57
2022/10/26 11:08:04;;;;;;;0.10;0.10;;;;;;;21.69;56.27;99331.34;7260727;19;2004747;-58
2022/10/26 11:10:36;;;;;;;0.10;0.10;;;;;;;21.73;55.36;99341.56;7363875;19;20021;-58
2022/10/26 11:13:22;;;;;;;0.10;0.10;;;;;;;21.69;56.22;99384.47;7363326;19;20013;-58
2022/10/26 11:15:51;;;;;;;0.10;0.10;;;;;;;21.55;53.96;99353.03;7365706;19;20018;-58
2022/10/26 11:18:32;;;;;;;0.10;0.10;;;;;;;21.51;54.67;99344.47;7364420;19;20006;-58
2022/10/26 11:21:24;;;;;;;0.05;0.05;;;;;;;21.48;54.48;99361.50;7362953;19;20033;-58
2022/10/26 11:24:09;;;;;;;0.00;0.00;;;;;;;21.23;51.86;99362.81;7256585;19;2004376;-58
2022/10/26 11:26:55;;;;;;;0.10;0.10;;;;;;;21.04;52.68;99394.63;7364515;19;20074;-58
2022/10/26 11:29:28;;;;;;;0.10;0.10;;;;;;;20.78;53.15;99393.38;7363487;19;20014;-59
2022/10/26 11:32:09;;;;;;;0.00;0.00;;;;;;;20.64;54.51;99392.75;7363917;19;20014;-58
2022/10/26 11:34:51;;;;;;;0.10;0.10;;;;;;;20.64;54.55;99392.75;7361974;19;20497;-57
2022/10/26 11:37:26;;;;;;;0.00;0.00;;;;;;;20.67;55.66;99388.97;7365090;19;20818;-58
2022/10/26 11:40:07;;;;;;;0.10;0.10;;;;;;;20.78;53.46;99394.19;7364716;19;20024;-58
2022/10/26 11:42:41;;;;;;;0.10;0.10;;;;;;;21.04;53.32;99389.31;7362362;19;20035;-58
2022/10/26 11:45:22;;;;;;;0.10;0.10;;;;;;;21.24;54.89;99401.69;7360164;19;20007;-58
2022/10/26 11:48:00;;;;;;;0.10;0.10;;;;;;;21.46;54.97;99384.72;7363811;19;20006;-58
2022/10/26 11:50:33;;;;;;;0.10;0.10;;;;;;;21.75;52.89;99390.09;7360462;19;20138;-58
2022/10/26 11:53:11;;;;;;;0.10;0.10;;;;;;;21.98;53.52;99417.25;7361117;19;20006;-58